Time;durP1;ratioP1;P1;durP2;ratioP2;P2;SDS_P1;SDS_P2;PMS_P1;PMS_P2;Temp;Humidity;BMP_temperature;BMP_pressure;BME280_temperature;BME280_humidity;BME280_pressure;Samples;Min_cycle;Max_cycle;Signal;HPM_P1;HPM_P2
2023/09/27 00:01:25;;;;;;;8.27;2.60;;;20.30;55.80;;;;;;6236608;28;20976;-77
2023/09/27 00:04:28;;;;;;;13.35;2.83;;;20.30;55.80;;;;;;6239057;28;20497;-76
2023/09/27 00:07:28;;;;;;;8.02;2.40;;;20.30;55.90;;;;;;6241508;28;20038;-75
2023/09/27 00:10:29;;;;;;;7.03;2.85;;;20.30;56.10;;;;;;6241304;28;20067;-75
2023/09/27 00:13:33;;;;;;;7.50;2.78;;;20.20;56.40;;;;;;6223851;28;20051;-75
2023/09/27 00:16:33;;;;;;;6.97;2.85;;;20.20;56.50;;;;;;6241553;28;20053;-75
2023/09/27 00:19:34;;;;;;;8.82;3.55;;;20.10;56.50;;;;;;6223393;28;20592;-77
2023/09/27 00:22:35;;;;;;;7.53;3.45;;;20.10;56.50;;;;;;6242045;28;20131;-76
2023/09/27 00:25:36;;;;;;;5.57;2.80;;;20.10;56.60;;;;;;6241792;28;20033;-76
2023/09/27 00:28:37;;;;;;;7.60;2.95;;;20.10;56.70;;;;;;6241207;28;20111;-76
2023/09/27 00:31:38;;;;;;;7.53;2.85;;;20.10;56.80;;;;;;6239539;28;20557;-74
2023/09/27 00:34:38;;;;;;;6.22;2.55;;;20.10;56.90;;;;;;6239691;28;20210;-75
2023/09/27 00:37:39;;;;;;;8.25;2.65;;;20.00;57.00;;;;;;6239581;28;20063;-77
2023/09/27 00:40:47;;;;;;;7.80;2.65;;;20.00;57.10;;;;;;6239626;28;20033;-77
2023/09/27 00:43:48;;;;;;;5.60;2.38;;;19.90;57.30;;;;;;6239695;28;20064;-76
2023/09/27 00:46:51;;;;;;;6.03;2.80;;;19.90;57.40;;;;;;6234281;28;20482;-76
2023/09/27 00:49:53;;;;;;;7.80;2.95;;;19.80;57.60;;;;;;6222765;28;20034;-77
2023/09/27 00:52:54;;;;;;;7.88;2.88;;;19.80;57.80;;;;;;6239277;28;20040;-76
2023/09/27 00:55:55;;;;;;;10.85;2.92;;;19.70;57.90;;;;;;6223244;28;20462;-77
2023/09/27 00:58:56;;;;;;;7.28;2.50;;;19.70;57.80;;;;;;6222600;28;20036;-78
2023/09/27 01:01:57;;;;;;;6.82;2.40;;;19.70;57.80;;;;;;6222278;28;20160;-77
2023/09/27 01:04:58;;;;;;;5.55;2.42;;;19.70;57.70;;;;;;6222514;28;20397;-75
2023/09/27 01:07:59;;;;;;;5.22;2.33;;;19.60;57.80;;;;;;6238531;28;20534;-76
2023/09/27 01:11:03;;;;;;;7.10;2.53;;;19.60;57.90;;;;;;6239630;28;20107;-76
2023/09/27 01:14:03;;;;;;;4.93;2.38;;;19.50;57.90;;;;;;6240019;28;20052;-77
2023/09/27 01:17:11;;;;;;;5.35;2.08;;;19.50;58.10;;;;;;6230158;28;20033;-79
2023/09/27 01:20:12;;;;;;;6.17;2.53;;;19.40;58.20;;;;;;6185189;28;20029;-77
2023/09/27 01:23:13;;;;;;;6.18;2.75;;;19.40;58.30;;;;;;6206069;28;20040;-76
2023/09/27 01:26:16;;;;;;;4.93;2.70;;;19.30;58.40;;;;;;6240437;28;20473;-78
2023/09/27 01:29:17;;;;;;;6.00;2.38;;;19.20;58.60;;;;;;6238506;28;20036;-76
2023/09/27 01:32:19;;;;;;;6.07;2.70;;;19.20;58.80;;;;;;6240468;28;20376;-76
2023/09/27 01:35:19;;;;;;;4.72;2.55;;;19.20;59.00;;;;;;6240146;28;20808;-76
2023/09/27 01:38:20;;;;;;;11.43;3.38;;;19.10;59.10;;;;;;6221813;28;20037;-78
2023/09/27 01:41:21;;;;;;;12.30;2.60;;;19.10;59.20;;;;;;6205983;28;20029;-77
2023/09/27 01:44:22;;;;;;;5.82;2.60;;;19.10;59.30;;;;;;6240481;28;20037;-76
2023/09/27 01:47:23;;;;;;;7.43;2.30;;;19.00;59.40;;;;;;6237941;28;20138;-77
2023/09/27 01:50:25;;;;;;;5.95;2.10;;;19.00;59.50;;;;;;6221599;28;20493;-77
2023/09/27 01:53:26;;;;;;;6.40;2.63;;;19.00;59.60;;;;;;6238402;28;20033;-79
2023/09/27 01:56:27;;;;;;;10.90;2.92;;;19.00;59.60;;;;;;6237978;28;20108;-77
2023/09/27 01:59:28;;;;;;;5.45;2.30;;;18.90;59.70;;;;;;6221122;28;20044;-75
2023/09/27 02:02:29;;;;;;;6.60;2.83;;;18.90;59.80;;;;;;6238080;28;20040;-77
2023/09/27 02:05:31;;;;;;;9.80;2.47;;;18.90;59.90;;;;;;6239079;28;20025;-78
2023/09/27 02:08:31;;;;;;;5.25;2.03;;;18.90;59.90;;;;;;6237594;28;20033;-75
2023/09/27 02:11:33;;;;;;;6.07;2.33;;;18.80;59.90;;;;;;6228925;28;20038;-76
2023/09/27 02:14:34;;;;;;;5.63;2.45;;;18.80;59.90;;;;;;6239192;28;20597;-78
2023/09/27 02:17:36;;;;;;;4.38;2.30;;;18.80;59.90;;;;;;6221294;28;20034;-77
2023/09/27 02:20:37;;;;;;;5.07;2.05;;;18.80;59.90;;;;;;6221525;28;20488;-76
2023/09/27 02:23:38;;;;;;;6.10;2.40;;;18.80;60.10;;;;;;6221132;28;20129;-77
2023/09/27 02:26:40;;;;;;;6.47;2.67;;;18.80;59.90;;;;;;6238189;28;20118;-77
2023/09/27 02:29:42;;;;;;;11.40;2.83;;;18.80;59.90;;;;;;6220602;28;20069;-76
2023/09/27 02:32:43;;;;;;;7.47;3.08;;;18.80;59.40;;;;;;6220769;28;20026;-76
2023/09/27 02:35:44;;;;;;;11.27;2.97;;;18.70;59.80;;;;;;6220910;28;20043;-76
2023/09/27 02:38:45;;;;;;;5.45;2.40;;;18.70;59.90;;;;;;6220664;28;20029;-76
2023/09/27 02:41:46;;;;;;;6.28;3.08;;;18.70;59.90;;;;;;6233652;28;20121;-77
2023/09/27 02:44:47;;;;;;;5.68;2.20;;;18.70;59.80;;;;;;6217306;28;20029;-78
2023/09/27 02:47:48;;;;;;;7.75;2.45;;;18.70;60.40;;;;;;6213509;28;20038;-76
2023/09/27 02:50:50;;;;;;;3.67;2.25;;;18.80;59.70;;;;;;6213577;28;20402;-77
2023/09/27 02:53:50;;;;;;;7.40;2.28;;;18.80;59.70;;;;;;6195975;28;20040;-78
2023/09/27 02:56:51;;;;;;;7.45;2.80;;;18.80;59.60;;;;;;6213677;28;20041;-77
2023/09/27 02:59:52;;;;;;;5.72;2.80;;;18.80;59.60;;;;;;6211425;28;20037;-79
2023/09/27 03:02:53;;;;;;;6.15;2.58;;;18.80;60.30;;;;;;6211879;28;20125;-78
2023/09/27 03:05:54;;;;;;;4.18;2.20;;;18.70;59.50;;;;;;6213234;28;20026;-76
2023/09/27 03:08:55;;;;;;;6.03;2.50;;;18.70;59.60;;;;;;6227435;28;20385;-78
2023/09/27 03:11:55;;;;;;;3.90;1.70;;;18.70;59.70;;;;;;6217099;28;20104;-77
2023/09/27 03:14:56;;;;;;;4.97;2.30;;;18.70;59.80;;;;;;6236326;28;20041;-76
2023/09/27 03:17:57;;;;;;;7.00;2.90;;;18.60;59.80;;;;;;6203072;28;20033;-76
2023/09/27 03:20:59;;;;;;;5.10;2.42;;;18.60;60.00;;;;;;6236041;28;20037;-77
2023/09/27 03:23:59;;;;;;;5.63;2.22;;;18.60;60.10;;;;;;6236383;28;20034;-75
2023/09/27 03:27:02;;;;;;;4.85;2.35;;;18.60;60.10;;;;;;6237677;28;20470;-77
2023/09/27 03:30:06;;;;;;;7.10;2.80;;;18.50;60.00;;;;;;6235672;28;20029;-76
2023/09/27 03:33:09;;;;;;;6.55;2.42;;;18.50;59.90;;;;;;6235813;28;20034;-76
2023/09/27 03:36:11;;;;;;;6.53;2.25;;;18.50;59.90;;;;;;6235532;28;20045;-76
2023/09/27 03:39:12;;;;;;;8.52;2.63;;;18.50;59.90;;;;;;6223197;28;20065;-78
2023/09/27 03:42:13;;;;;;;7.05;2.38;;;18.50;60.10;;;;;;6194573;28;20549;-77
2023/09/27 03:45:14;;;;;;;7.53;2.80;;;18.50;60.10;;;;;;6178902;28;20049;-77
2023/09/27 03:48:15;;;;;;;9.60;2.58;;;18.50;60.10;;;;;;6211494;28;20065;-76
2023/09/27 03:51:25;;;;;;;9.10;2.65;;;18.50;60.20;;;;;;6211340;28;20048;-77
2023/09/27 03:54:26;;;;;;;5.03;2.65;;;18.50;60.30;;;;;;6179536;28;20117;-77
2023/09/27 03:57:27;;;;;;;7.00;2.90;;;18.40;60.70;;;;;;6213191;28;20029;-76
2023/09/27 04:00:28;;;;;;;9.90;3.22;;;18.30;60.80;;;;;;6210959;28;20065;-76
2023/09/27 04:03:29;;;;;;;8.38;2.70;;;18.30;61.80;;;;;;6211150;28;20113;-79
2023/09/27 04:06:30;;;;;;;4.57;2.65;;;18.30;61.20;;;;;;6233965;28;20120;-78
2023/09/27 04:09:32;;;;;;;10.13;2.30;;;18.20;61.20;;;;;;6218479;28;20383;-77
2023/09/27 04:12:32;;;;;;;5.88;3.10;;;18.10;61.40;;;;;;6236665;28;20215;-77
2023/09/27 04:15:35;;;;;;;14.75;2.70;;;18.00;61.60;;;;;;6236834;28;20109;-80
2023/09/27 04:18:36;;;;;;;8.52;2.75;;;18.00;62.00;;;;;;6218599;28;20026;-77
2023/09/27 04:21:37;;;;;;;10.88;2.75;;;17.90;62.20;;;;;;6236728;28;20099;-76
2023/09/27 04:24:38;;;;;;;10.52;3.05;;;18.10;62.40;;;;;;6219229;28;20026;-76
2023/09/27 04:27:40;;;;;;;5.88;2.05;;;17.80;62.20;;;;;;6218683;28;20041;-77
2023/09/27 04:30:40;;;;;;;4.40;2.35;;;17.80;62.30;;;;;;6236352;28;20083;-75
2023/09/27 04:33:44;;;;;;;20.00;3.10;;;17.80;62.20;;;;;;6236498;28;20053;-76
2023/09/27 04:36:45;;;;;;;4.88;2.38;;;17.80;62.20;;;;;;6213272;28;20591;-77
2023/09/27 04:39:46;;;;;;;6.10;3.33;;;17.80;62.30;;;;;;6212232;28;20049;-75
2023/09/27 04:42:47;;;;;;;12.07;3.80;;;17.80;62.30;;;;;;6212277;28;20121;-76
2023/09/27 04:45:49;;;;;;;6.97;2.80;;;17.80;62.40;;;;;;6212737;28;20034;-76
2023/09/27 04:48:50;;;;;;;10.45;3.13;;;17.80;62.40;;;;;;6212574;28;20030;-77
2023/09/27 04:51:51;;;;;;;13.57;3.03;;;17.70;62.50;;;;;;6216535;28;20029;-75
2023/09/27 04:54:56;;;;;;;7.93;2.90;;;17.70;62.70;;;;;;6216694;28;20072;-75
2023/09/27 04:57:57;;;;;;;13.05;3.08;;;17.70;62.90;;;;;;6210276;28;20053;-77
2023/09/27 05:00:58;;;;;;;9.73;3.47;;;17.60;63.10;;;;;;6232317;28;20190;-75
2023/09/27 05:03:58;;;;;;;8.77;2.85;;;17.50;63.20;;;;;;6223568;28;20058;-77
2023/09/27 05:06:59;;;;;;;7.90;3.15;;;17.50;63.50;;;;;;6215426;28;20081;-79
2023/09/27 05:10:00;;;;;;;7.63;3.50;;;17.50;63.70;;;;;;6235637;28;20037;-77
2023/09/27 05:13:01;;;;;;;5.35;2.75;;;17.50;63.80;;;;;;6201260;28;20038;-77
2023/09/27 05:16:05;;;;;;;4.38;2.78;;;17.50;63.80;;;;;;6216271;28;20026;-79
2023/09/27 05:19:05;;;;;;;5.25;2.53;;;17.50;63.80;;;;;;6198376;28;20053;-77
2023/09/27 05:22:06;;;;;;;5.15;2.35;;;17.40;63.70;;;;;;6216853;28;20124;-76
2023/09/27 05:25:08;;;;;;;11.27;3.60;;;17.40;63.80;;;;;;6216555;28;20113;-76
2023/09/27 05:28:09;;;;;;;7.55;3.40;;;17.40;64.00;;;;;;6215594;28;20053;-76
2023/09/27 05:31:10;;;;;;;7.80;2.78;;;17.40;64.20;;;;;;6229498;28;20483;-77
2023/09/27 05:34:11;;;;;;;11.57;3.55;;;16.90;64.00;;;;;;6230216;28;20022;-77
2023/09/27 05:37:12;;;;;;;10.40;3.05;;;17.30;64.40;;;;;;6229295;28;20064;-75
2023/09/27 05:40:17;;;;;;;5.28;3.20;;;17.30;64.60;;;;;;6226751;28;20446;-75
2023/09/27 05:43:20;;;;;;;7.47;2.80;;;17.30;64.80;;;;;;6218852;28;20041;-74
2023/09/27 05:46:21;;;;;;;11.27;3.53;;;17.20;64.80;;;;;;6219187;28;20530;-77
2023/09/27 05:49:21;;;;;;;9.73;2.97;;;17.20;64.90;;;;;;6219609;28;20058;-77
2023/09/27 05:52:22;;;;;;;6.18;2.65;;;17.20;65.00;;;;;;6227452;28;20065;-74
2023/09/27 05:55:23;;;;;;;6.25;3.42;;;17.20;65.00;;;;;;6216969;28;20025;-77
2023/09/27 05:58:24;;;;;;;9.57;3.53;;;17.20;65.10;;;;;;6232630;28;20029;-75
2023/09/27 06:01:25;;;;;;;7.60;2.53;;;17.10;65.10;;;;;;6235689;28;20060;-75
2023/09/27 06:04:26;;;;;;;6.60;3.05;;;17.10;65.30;;;;;;6237269;28;20099;-75
2023/09/27 06:07:27;;;;;;;7.88;2.95;;;17.10;65.30;;;;;;6230766;28;20037;-75
2023/09/27 06:10:27;;;;;;;6.40;3.47;;;17.10;65.40;;;;;;6238205;28;20389;-76
2023/09/27 06:13:28;;;;;;;13.70;3.38;;;17.10;65.30;;;;;;6238393;28;20026;-74
2023/09/27 06:16:29;;;;;;;8.30;3.28;;;17.10;65.10;;;;;;6238264;28;20501;-75
2023/09/27 06:19:31;;;;;;;6.28;2.97;;;17.20;65.00;;;;;;6237662;28;20031;-74
2023/09/27 06:22:31;;;;;;;10.98;3.13;;;17.20;64.90;;;;;;6238397;28;20029;-74
2023/09/27 06:25:34;;;;;;;8.13;3.20;;;17.20;64.90;;;;;;6236705;28;20560;-74
2023/09/27 06:28:38;;;;;;;4.55;2.95;;;17.30;64.80;;;;;;6236547;28;20132;-74
2023/09/27 06:31:39;;;;;;;17.15;3.40;;;17.30;64.70;;;;;;6236208;28;20120;-75
2023/09/27 06:34:39;;;;;;;9.60;2.95;;;17.40;64.60;;;;;;6236455;28;20037;-76
2023/09/27 06:37:46;;;;;;;11.60;3.42;;;17.40;64.50;;;;;;6237776;28;20025;-75
2023/09/27 06:40:48;;;;;;;7.63;2.92;;;17.40;64.40;;;;;;6237748;28;20130;-76
2023/09/27 06:43:49;;;;;;;7.63;3.85;;;17.50;64.40;;;;;;6236402;28;20055;-74
2023/09/27 06:46:52;;;;;;;15.10;3.25;;;17.50;64.20;;;;;;6236355;28;20036;-75
2023/09/27 06:49:55;;;;;;;14.15;3.80;;;17.60;64.20;;;;;;6237759;28;20406;-75
2023/09/27 06:52:59;;;;;;;16.30;5.03;;;17.60;64.00;;;;;;6237345;28;20192;-74
2023/09/27 06:56:00;;;;;;;8.43;4.32;;;17.70;63.90;;;;;;6229268;28;20037;-75
2023/09/27 06:59:00;;;;;;;12.88;3.33;;;17.80;63.70;;;;;;6219636;28;20133;-74
2023/09/27 07:02:05;;;;;;;7.30;2.60;;;17.90;63.40;;;;;;6237152;28;20083;-74
2023/09/27 07:05:07;;;;;;;7.45;3.47;;;17.90;63.10;;;;;;6237284;28;20033;-75
2023/09/27 07:08:09;;;;;;;5.03;2.70;;;18.00;63.00;;;;;;6237525;28;20462;-74
2023/09/27 07:11:10;;;;;;;6.30;2.97;;;18.00;62.90;;;;;;6228695;28;20493;-75
2023/09/27 07:14:12;;;;;;;13.20;3.60;;;18.10;62.80;;;;;;6212747;28;20164;-75
2023/09/27 07:17:12;;;;;;;10.55;3.60;;;18.20;62.60;;;;;;6212834;28;20443;-75
2023/09/27 07:20:26;;;;;;;10.85;3.47;;;18.20;62.20;;;;;;6212760;28;20046;-75
2023/09/27 07:23:27;;;;;;;12.02;3.60;;;18.30;62.00;;;;;;6201193;28;20422;-75
2023/09/27 07:26:32;;;;;;;6.78;3.25;;;18.40;61.90;;;;;;6218949;28;20033;-76
2023/09/27 07:29:35;;;;;;;8.32;3.10;;;18.50;61.60;;;;;;6236972;28;20026;-74
2023/09/27 07:32:39;;;;;;;12.88;3.42;;;18.60;61.20;;;;;;6237030;28;20029;-75
2023/09/27 07:35:42;;;;;;;8.32;3.42;;;18.70;60.90;;;;;;6237238;28;20033;-75
2023/09/27 07:38:43;;;;;;;11.73;3.00;;;18.80;60.50;;;;;;6237158;28;20510;-75
2023/09/27 07:41:44;;;;;;;8.60;3.83;;;18.90;60.20;;;;;;6220088;28;20040;-75
2023/09/27 07:44:46;;;;;;;9.68;2.85;;;19.00;59.90;;;;;;6194446;28;20430;-74
2023/09/27 07:47:48;;;;;;;11.50;2.90;;;19.10;59.60;;;;;;6212958;28;20100;-76
2023/09/27 07:50:49;;;;;;;4.97;2.63;;;19.30;59.30;;;;;;6212409;28;20109;-76
2023/09/27 07:53:50;;;;;;;13.13;3.05;;;19.40;58.90;;;;;;6211125;28;20041;-76
2023/09/27 07:56:51;;;;;;;8.43;3.60;;;19.60;58.50;;;;;;6213001;28;20072;-76
2023/09/27 07:59:52;;;;;;;9.57;3.30;;;19.80;58.00;;;;;;6212364;28;20503;-75
2023/09/27 08:02:55;;;;;;;11.15;3.42;;;20.00;57.50;;;;;;6195202;28;20026;-75
2023/09/27 08:05:55;;;;;;;12.40;3.53;;;20.10;56.80;;;;;;6212719;28;20113;-75
2023/09/27 08:08:57;;;;;;;8.52;3.22;;;20.20;55.90;;;;;;6210943;28;20109;-75
2023/09/27 08:11:58;;;;;;;13.15;3.95;;;20.30;55.50;;;;;;6217625;28;20053;-75
2023/09/27 08:15:05;;;;;;;11.57;3.15;;;20.40;55.20;;;;;;6194674;28;20100;-75
2023/09/27 08:18:07;;;;;;;9.38;3.10;;;20.50;55.00;;;;;;6210823;28;20424;-76
2023/09/27 08:21:08;;;;;;;13.52;3.85;;;20.60;54.80;;;;;;6230181;28;20128;-74
2023/09/27 08:24:09;;;;;;;8.63;3.60;;;20.80;54.90;;;;;;6237092;28;20045;-76
2023/09/27 08:27:10;;;;;;;8.25;3.08;;;21.00;54.50;;;;;;6223644;28;20057;-74
2023/09/27 08:30:11;;;;;;;9.00;2.78;;;21.20;54.30;;;;;;6240852;28;20092;-74
2023/09/27 08:33:12;;;;;;;13.27;3.92;;;21.30;53.80;;;;;;6223397;28;20036;-75
2023/09/27 08:36:13;;;;;;;9.90;3.53;;;21.50;53.70;;;;;;6240610;28;20112;-75
2023/09/27 08:39:15;;;;;;;11.18;3.67;;;21.60;53.30;;;;;;6240968;28;20038;-75
2023/09/27 08:42:16;;;;;;;8.85;3.83;;;21.70;53.20;;;;;;6222905;28;20813;-74
2023/09/27 08:45:19;;;;;;;8.77;3.30;;;21.80;53.30;;;;;;6241019;28;20053;-74
2023/09/27 08:48:22;;;;;;;14.80;3.67;;;21.80;53.30;;;;;;6215829;28;20145;-74
2023/09/27 08:51:27;;;;;;;6.45;3.33;;;21.80;53.20;;;;;;6216542;28;20034;-75
2023/09/27 08:54:32;;;;;;;13.77;3.75;;;21.80;52.50;;;;;;6214970;28;20052;-75
2023/09/27 08:57:37;;;;;;;8.48;4.03;;;21.90;52.40;;;;;;6216161;28;20144;-75
2023/09/27 09:00:41;;;;;;;9.20;4.00;;;22.00;52.40;;;;;;6198149;28;20072;-75
2023/09/27 09:03:42;;;;;;;15.07;2.90;;;22.10;51.90;;;;;;6197465;28;20091;-75
2023/09/27 09:06:46;;;;;;;11.48;4.00;;;22.20;51.70;;;;;;6196286;28;20160;-75
2023/09/27 09:09:47;;;;;;;15.77;5.88;;;22.30;51.30;;;;;;6214926;28;20124;-74
2023/09/27 09:12:49;;;;;;;14.63;4.68;;;22.30;51.00;;;;;;6181399;28;20030;-75
2023/09/27 09:15:51;;;;;;;12.23;3.42;;;22.40;50.90;;;;;;6215597;28;20068;-76
2023/09/27 09:18:52;;;;;;;10.98;3.70;;;22.50;50.70;;;;;;6215659;28;20064;-75
2023/09/27 09:22:00;;;;;;;10.80;3.92;;;22.60;50.50;;;;;;6214835;28;20427;-74
2023/09/27 09:25:02;;;;;;;8.80;3.47;;;22.80;50.30;;;;;;6213548;28;20057;-76
2023/09/27 09:28:13;;;;;;;12.68;5.05;;;22.90;49.90;;;;;;6214959;28;20183;-74
2023/09/27 09:31:25;;;;;;;9.90;4.03;;;22.90;49.40;;;;;;6213288;28;20234;-76
2023/09/27 09:34:26;;;;;;;7.40;3.30;;;22.90;49.10;;;;;;6214416;28;20719;-75
2023/09/27 09:37:31;;;;;;;15.27;4.20;;;23.00;48.90;;;;;;6214016;28;20041;-76
2023/09/27 09:40:32;;;;;;;11.98;4.10;;;23.00;48.90;;;;;;6214375;28;20038;-75
2023/09/27 09:43:36;;;;;;;5.78;2.55;;;23.00;49.00;;;;;;6232276;28;20041;-74
2023/09/27 09:46:37;;;;;;;10.02;4.40;;;23.10;49.30;;;;;;6220821;28;20026;-75
2023/09/27 09:49:38;;;;;;;6.90;3.25;;;23.20;49.40;;;;;;6238489;28;20040;-78
2023/09/27 09:52:54;;;;;;;11.80;4.18;;;23.20;49.30;;;;;;6238415;28;20096;-76
2023/09/27 09:55:57;;;;;;;9.75;4.70;;;23.40;49.30;;;;;;6238296;28;20037;-78
2023/09/27 09:59:03;;;;;;;14.55;3.30;;;23.50;49.20;;;;;;6238834;28;20078;-74
2023/09/27 10:02:20;;;;;;;11.80;5.05;;;23.70;49.10;;;;;;6238401;28;20033;-76
2023/09/27 10:05:21;;;;;;;8.27;3.70;;;23.80;48.90;;;;;;6237970;28;20064;-77
2023/09/27 10:08:25;;;;;;;10.38;3.42;;;23.90;48.50;;;;;;6238495;28;20025;-76
2023/09/27 10:11:26;;;;;;;9.57;3.80;;;24.00;48.10;;;;;;6238474;28;20109;-76
2023/09/27 10:14:29;;;;;;;13.13;2.72;;;24.10;47.80;;;;;;6239802;28;20102;-77
2023/09/27 10:17:31;;;;;;;13.05;4.72;;;24.10;47.60;;;;;;6236910;28;20499;-76
2023/09/27 10:20:32;;;;;;;15.40;5.03;;;24.20;47.30;;;;;;6237617;28;20120;-77
2023/09/27 10:23:37;;;;;;;8.90;3.40;;;24.30;47.20;;;;;;6240287;28;20386;-74
2023/09/27 10:26:38;;;;;;;8.07;3.60;;;24.50;46.50;;;;;;6238356;28;20021;-75
2023/09/27 10:29:55;;;;;;;7.70;2.97;;;24.80;45.90;;;;;;6236715;28;20068;-75
2023/09/27 10:33:25;;;;;;;7.60;2.92;;;25.10;45.60;;;;;;6220082;28;20108;-75
2023/09/27 10:36:28;;;;;;;7.88;3.60;;;25.50;45.10;;;;;;6116264;29;20079;-76
2023/09/27 10:39:29;;;;;;;10.98;3.65;;;25.80;44.10;;;;;;6100615;29;20219;-75
2023/09/27 10:42:42;;;;;;;8.88;3.92;;;26.10;43.90;;;;;;6115750;29;20860;-78
2023/09/27 10:45:54;;;;;;;8.15;2.78;;;26.50;43.00;;;;;;6113972;29;20076;-76
2023/09/27 10:48:58;;;;;;;4.53;2.40;;;26.80;42.60;;;;;;6114154;29;20057;-77
2023/09/27 10:51:59;;;;;;;7.28;3.10;;;27.10;41.50;;;;;;6115796;29;20039;-76
2023/09/27 10:55:36;;;;;;;7.78;3.90;;;27.30;40.70;;;;;;6113470;29;20139;-76
2023/09/27 10:58:49;;;;;;;12.50;3.92;;;27.60;39.60;;;;;;6042195;29;20069;-76
2023/09/27 11:01:54;;;;;;;6.15;2.60;;;27.80;39.60;;;;;;6050797;29;20131;-76
2023/09/27 11:04:56;;;;;;;11.77;3.55;;;28.10;39.30;;;;;;6048970;29;20198;-76
2023/09/27 11:07:57;;;;;;;5.65;2.70;;;28.40;38.90;;;;;;6040310;29;20056;-76
2023/09/27 11:10:58;;;;;;;7.25;3.10;;;28.70;38.00;;;;;;6059992;29;20521;-76
2023/09/27 11:13:59;;;;;;;9.70;2.65;;;28.80;37.90;;;;;;6112685;29;20027;-76
2023/09/27 11:17:22;;;;;;;16.33;6.15;;;29.00;37.10;;;;;;6113678;29;20063;-77
2023/09/27 11:20:23;;;;;;;8.90;3.33;;;29.30;37.10;;;;;;6120983;29;20172;-76
2023/09/27 11:23:24;;;;;;;5.35;2.83;;;29.70;36.40;;;;;;6136479;29;20035;-76
2023/09/27 11:26:26;;;;;;;12.50;3.75;;;30.10;35.90;;;;;;6136261;29;20035;-76
2023/09/27 11:29:27;;;;;;;10.15;3.15;;;30.50;35.30;;;;;;6193385;28;20048;-77
2023/09/27 11:32:47;;;;;;;4.63;2.58;;;31.10;34.70;;;;;;6234544;28;20492;-77
2023/09/27 11:35:50;;;;;;;15.23;5.47;;;31.40;33.60;;;;;;6236672;28;20037;-75
2023/09/27 11:38:51;;;;;;;6.22;2.72;;;31.80;33.10;;;;;;6236643;28;20041;-77
2023/09/27 11:41:57;;;;;;;5.22;2.40;;;32.20;32.80;;;;;;6236791;28;20041;-76
2023/09/27 11:45:08;;;;;;;6.88;3.50;;;32.70;32.00;;;;;;6236554;28;20099;-75
2023/09/27 11:48:09;;;;;;;5.68;2.95;;;33.10;31.50;;;;;;6229555;28;20571;-75
2023/09/27 11:51:11;;;;;;;5.57;3.00;;;33.50;30.90;;;;;;6227556;28;20585;-75
2023/09/27 11:54:12;;;;;;;10.60;3.70;;;33.80;30.20;;;;;;6198123;28;20099;-74
2023/09/27 11:57:13;;;;;;;12.98;4.40;;;34.00;30.00;;;;;;6216931;28;20038;-76
2023/09/27 12:00:15;;;;;;;17.70;6.75;;;34.30;29.80;;;;;;6197466;28;20042;-75
2023/09/27 12:03:16;;;;;;;11.25;4.03;;;34.60;29.40;;;;;;6215018;28;20045;-75
2023/09/27 12:06:17;;;;;;;6.30;3.03;;;35.10;29.00;;;;;;6218235;28;20104;-77
2023/09/27 12:09:18;;;;;;;4.63;3.22;;;35.60;27.90;;;;;;6226519;28;20471;-76
2023/09/27 12:12:19;;;;;;;8.27;3.40;;;35.80;27.40;;;;;;6229852;28;20034;-76
2023/09/27 12:15:20;;;;;;;4.68;2.90;;;36.20;26.90;;;;;;6234277;28;20041;-76
2023/09/27 12:18:22;;;;;;;10.02;3.28;;;36.40;26.30;;;;;;6231545;28;20454;-76
2023/09/27 12:21:23;;;;;;;10.07;3.97;;;36.40;26.40;;;;;;6233146;28;20163;-75
2023/09/27 12:24:24;;;;;;;10.98;3.88;;;36.60;26.10;;;;;;6233503;28;20101;-77
2023/09/27 12:27:25;;;;;;;8.00;3.35;;;36.80;25.90;;;;;;6230621;28;20134;-78
2023/09/27 12:30:27;;;;;;;8.40;3.13;;;36.80;25.70;;;;;;6228045;28;20026;-76
2023/09/27 12:33:28;;;;;;;13.57;3.88;;;36.70;25.90;;;;;;6228722;28;20088;-77
2023/09/27 12:36:29;;;;;;;9.82;4.13;;;36.90;25.40;;;;;;6239233;28;20056;-77
2023/09/27 12:39:30;;;;;;;7.32;3.38;;;37.00;25.60;;;;;;6224179;28;20045;-76
2023/09/27 12:42:31;;;;;;;7.30;2.95;;;37.50;25.40;;;;;;6238801;28;20037;-75
2023/09/27 12:45:32;;;;;;;7.28;3.40;;;37.90;25.00;;;;;;6223315;28;20118;-75
2023/09/27 12:48:33;;;;;;;13.32;3.47;;;38.40;24.60;;;;;;6214559;28;20565;-75
2023/09/27 12:51:34;;;;;;;9.25;4.35;;;38.30;24.40;;;;;;6224651;28;20038;-78
2023/09/27 12:54:35;;;;;;;8.65;3.65;;;37.50;24.90;;;;;;6229095;28;20134;-77
2023/09/27 12:57:35;;;;;;;8.13;2.83;;;36.70;25.50;;;;;;6229512;28;20613;-76
2023/09/27 13:00:37;;;;;;;9.10;3.08;;;35.90;26.00;;;;;;6233188;28;20076;-76
2023/09/27 13:03:38;;;;;;;9.98;3.78;;;35.30;26.60;;;;;;6235414;28;20063;-76
2023/09/27 13:06:39;;;;;;;7.60;3.60;;;34.70;27.00;;;;;;6223278;28;20497;-75
2023/09/27 13:09:41;;;;;;;18.38;4.38;;;34.10;27.50;;;;;;6220271;28;20061;-76
2023/09/27 13:12:41;;;;;;;10.88;3.65;;;33.70;28.00;;;;;;6236142;28;20071;-76
2023/09/27 13:15:42;;;;;;;15.00;4.25;;;33.40;28.30;;;;;;6218876;28;20125;-75
2023/09/27 13:18:43;;;;;;;11.90;3.03;;;33.10;28.60;;;;;;6221081;28;20029;-77
2023/09/27 13:21:44;;;;;;;11.70;4.70;;;32.90;28.80;;;;;;6225544;28;20696;-76
2023/09/27 13:24:45;;;;;;;13.05;4.00;;;32.70;29.00;;;;;;6229611;28;20026;-76
2023/09/27 13:27:45;;;;;;;7.95;2.92;;;32.60;29.20;;;;;;6220213;28;20038;-78
2023/09/27 13:30:47;;;;;;;15.25;2.67;;;32.30;29.30;;;;;;6224943;28;20129;-76
2023/09/27 13:33:47;;;;;;;9.80;3.35;;;32.30;29.50;;;;;;6218169;28;20029;-76
2023/09/27 13:36:49;;;;;;;11.50;3.50;;;32.10;29.60;;;;;;6221699;28;20041;-75
2023/09/27 13:39:50;;;;;;;10.90;3.40;;;32.10;29.80;;;;;;6225775;28;20029;-78
2023/09/27 13:42:51;;;;;;;13.27;3.67;;;32.00;30.00;;;;;;6227042;28;20085;-77
2023/09/27 13:45:52;;;;;;;10.07;3.35;;;31.80;30.20;;;;;;6230420;28;20394;-74
2023/09/27 13:48:53;;;;;;;7.50;3.10;;;31.60;30.40;;;;;;6209531;28;20391;-77
2023/09/27 13:51:54;;;;;;;11.32;3.70;;;31.50;30.80;;;;;;6214669;28;20038;-76
2023/09/27 13:54:55;;;;;;;7.97;4.03;;;31.30;31.00;;;;;;6217973;28;20108;-77
2023/09/27 13:57:56;;;;;;;12.93;3.28;;;31.10;31.30;;;;;;6226844;28;20033;-77
2023/09/27 14:00:57;;;;;;;7.97;3.03;;;31.00;31.70;;;;;;6222898;28;20133;-78
2023/09/27 14:03:58;;;;;;;7.25;3.15;;;30.80;31.90;;;;;;6197429;28;20471;-77
2023/09/27 14:07:00;;;;;;;8.15;3.97;;;30.70;32.30;;;;;;6224843;28;20025;-77
2023/09/27 14:10:03;;;;;;;8.43;3.60;;;30.60;32.50;;;;;;6179687;28;20034;-77
2023/09/27 14:13:03;;;;;;;9.40;3.25;;;30.50;32.70;;;;;;6230855;28;20112;-76
2023/09/27 14:16:04;;;;;;;10.13;3.72;;;30.40;33.00;;;;;;6234597;28;20109;-76
2023/09/27 14:19:05;;;;;;;8.30;2.97;;;30.20;33.20;;;;;;6232826;28;20132;-78
2023/09/27 14:22:09;;;;;;;12.32;3.03;;;30.10;33.50;;;;;;6238062;28;20029;-76
2023/09/27 14:25:12;;;;;;;6.63;3.45;;;30.00;33.70;;;;;;6233306;28;20034;-76
2023/09/27 14:28:13;;;;;;;5.70;3.38;;;30.00;34.00;;;;;;6219925;28;20120;-75
2023/09/27 14:31:16;;;;;;;14.90;3.15;;;29.80;34.10;;;;;;6236894;28;20124;-77
2023/09/27 14:34:17;;;;;;;14.90;3.63;;;29.70;34.20;;;;;;6221033;28;20033;-76
2023/09/27 14:37:18;;;;;;;7.10;3.13;;;29.70;34.40;;;;;;6236477;28;20037;-75
2023/09/27 14:40:20;;;;;;;12.38;3.97;;;29.70;34.60;;;;;;6236896;28;20427;-74
2023/09/27 14:43:21;;;;;;;11.43;3.78;;;29.70;34.60;;;;;;6238011;28;20030;-74
2023/09/27 14:46:24;;;;;;;14.85;3.80;;;29.60;34.80;;;;;;6238236;28;20370;-75
2023/09/27 14:49:27;;;;;;;16.33;3.40;;;29.50;35.00;;;;;;6227482;28;20403;-76
2023/09/27 14:52:27;;;;;;;8.88;3.22;;;29.40;35.10;;;;;;6228554;28;20029;-75
2023/09/27 14:55:29;;;;;;;15.65;4.20;;;29.40;35.30;;;;;;6213593;28;20406;-75
2023/09/27 14:58:31;;;;;;;10.15;3.22;;;29.30;35.40;;;;;;6212789;28;20060;-75
2023/09/27 15:01:32;;;;;;;11.32;2.85;;;29.20;35.50;;;;;;6211373;28;20427;-77
2023/09/27 15:04:33;;;;;;;23.50;4.80;;;29.40;35.80;;;;;;6211117;28;20120;-76
2023/09/27 15:07:36;;;;;;;38.92;6.25;;;29.10;35.70;;;;;;6211484;28;20034;-75
2023/09/27 15:10:37;;;;;;;10.30;4.40;;;29.10;35.80;;;;;;6215977;28;20084;-74
2023/09/27 15:13:38;;;;;;;11.88;3.90;;;29.00;35.90;;;;;;6237155;28;20138;-76
2023/09/27 15:16:38;;;;;;;16.52;4.30;;;29.00;36.10;;;;;;6237041;28;20124;-76
2023/09/27 15:19:39;;;;;;;11.18;3.13;;;29.00;36.20;;;;;;6236908;28;20499;-77
2023/09/27 15:22:41;;;;;;;17.17;5.10;;;28.90;36.20;;;;;;6229230;28;20040;-77
2023/09/27 15:25:41;;;;;;;10.63;3.42;;;28.90;36.30;;;;;;6237595;28;20044;-76
2023/09/27 15:28:42;;;;;;;11.00;4.07;;;28.80;36.30;;;;;;6219055;28;20041;-76
2023/09/27 15:31:43;;;;;;;12.32;3.35;;;28.80;36.40;;;;;;6218903;28;20158;-75
2023/09/27 15:34:44;;;;;;;13.38;3.58;;;28.80;36.40;;;;;;6236718;28;20164;-73
2023/09/27 15:37:55;;;;;;;16.35;4.05;;;28.70;36.40;;;;;;6236876;28;20032;-77
2023/09/27 15:40:56;;;;;;;9.23;3.75;;;28.80;36.50;;;;;;6234758;28;20128;-74
2023/09/27 15:43:57;;;;;;;15.75;3.72;;;28.80;36.60;;;;;;6201916;28;20048;-77